createdAt,value
2022-08-26T00:02:31.965Z,7.40
2022-08-26T00:05:23.457Z,9.33
2022-08-26T00:08:13.157Z,8.80
2022-08-26T00:11:05.897Z,9.63
2022-08-26T00:13:56.496Z,10.07
2022-08-26T00:16:48.998Z,8.60
2022-08-26T00:19:39.653Z,8.30
2022-08-26T00:22:28.814Z,9.97
2022-08-26T00:25:17.730Z,11.80
2022-08-26T00:28:08.331Z,8.53
2022-08-26T00:30:59.528Z,9.33
2022-08-26T00:33:51.084Z,9.27
2022-08-26T00:36:44.122Z,8.97
2022-08-26T00:39:37.040Z,12.77
2022-08-26T00:42:27.640Z,9.63
2022-08-26T00:45:20.360Z,8.73
2022-08-26T00:48:10.997Z,9.73
2022-08-26T00:51:05.227Z,9.30
2022-08-26T00:53:56.253Z,9.63
2022-08-26T00:56:47.968Z,10.33
2022-08-26T00:59:38.943Z,9.27
2022-08-26T01:02:29.034Z,14.13
2022-08-26T01:05:19.122Z,8.73
2022-08-26T01:08:08.334Z,12.17
2022-08-26T01:11:02.643Z,10.17
2022-08-26T01:13:56.963Z,9.33
2022-08-26T01:16:48.200Z,9.00
2022-08-26T01:19:42.211Z,9.70
2022-08-26T01:22:33.761Z,10.03
2022-08-26T01:25:26.531Z,9.50
2022-08-26T01:28:16.733Z,9.73
2022-08-26T01:31:09.672Z,8.67
2022-08-26T01:34:06.088Z,9.20
2022-08-26T01:36:58.773Z,10.50
2022-08-26T01:39:49.482Z,9.37
2022-08-26T01:42:39.528Z,8.43
2022-08-26T01:45:30.536Z,11.03
2022-08-26T01:48:24.434Z,9.10
2022-08-26T01:51:13.956Z,9.97
2022-08-26T01:54:05.939Z,9.00
2022-08-26T01:57:09.178Z,8.80
2022-08-26T02:00:00.768Z,8.80
2022-08-26T02:02:50.316Z,9.03
2022-08-26T02:05:40.875Z,10.00
2022-08-26T02:08:36.478Z,8.40
2022-08-26T02:11:26.951Z,9.53
2022-08-26T02:14:19.492Z,10.20
2022-08-26T02:17:15.601Z,8.70
2022-08-26T02:20:06.745Z,11.30
2022-08-26T02:23:03.047Z,8.80
2022-08-26T02:25:55.507Z,10.17
2022-08-26T02:28:46.468Z,10.57
2022-08-26T02:31:35.235Z,9.60
2022-08-26T02:34:31.502Z,9.23
2022-08-26T02:37:20.914Z,9.90
2022-08-26T02:40:13.135Z,9.70
2022-08-26T02:43:08.533Z,12.40
2022-08-26T02:46:00.049Z,9.00
2022-08-26T02:48:50.289Z,8.63
2022-08-26T02:51:40.189Z,9.23
2022-08-26T02:54:31.562Z,8.97
2022-08-26T02:57:22.134Z,9.30
2022-08-26T03:00:14.686Z,10.20
2022-08-26T03:03:03.258Z,11.17
2022-08-26T03:05:51.964Z,9.77
2022-08-26T03:08:48.414Z,12.20
2022-08-26T03:11:37.611Z,10.90
2022-08-26T03:14:28.850Z,9.80
2022-08-26T03:17:21.066Z,9.43
2022-08-26T03:20:10.729Z,8.97
2022-08-26T03:23:02.013Z,11.50
2022-08-26T03:25:57.098Z,11.30
2022-08-26T03:28:59.370Z,8.90
2022-08-26T03:31:47.969Z,10.73
2022-08-26T03:34:37.157Z,12.23
2022-08-26T03:37:29.325Z,12.70
2022-08-26T03:40:20.283Z,10.67
2022-08-26T03:43:11.735Z,10.57
2022-08-26T03:46:00.571Z,10.53
2022-08-26T03:48:51.413Z,10.70
2022-08-26T03:51:41.545Z,9.90
2022-08-26T03:54:34.507Z,11.30
2022-08-26T03:57:23.265Z,11.20
2022-08-26T04:00:18.418Z,9.47
2022-08-26T04:03:10.068Z,9.60
2022-08-26T04:05:58.941Z,11.47
2022-08-26T04:08:49.006Z,13.10
2022-08-26T04:11:39.445Z,10.13
2022-08-26T04:14:35.284Z,11.37
2022-08-26T04:17:29.509Z,10.60
2022-08-26T04:20:20.440Z,12.47
2022-08-26T04:23:09.136Z,11.20
2022-08-26T04:26:06.289Z,12.07
2022-08-26T04:28:56.680Z,10.73
2022-08-26T04:31:47.974Z,10.07
2022-08-26T04:34:47.833Z,9.60
2022-08-26T04:37:36.407Z,10.93
2022-08-26T04:40:27.486Z,11.60
2022-08-26T04:43:16.324Z,10.33
2022-08-26T04:46:05.669Z,11.20
2022-08-26T04:48:55.224Z,10.40
2022-08-26T04:51:45.268Z,12.03
2022-08-26T04:54:33.825Z,11.43
2022-08-26T04:57:24.028Z,11.77
2022-08-26T05:00:13.376Z,14.43
2022-08-26T05:03:02.073Z,9.57
2022-08-26T05:05:56.174Z,12.97
2022-08-26T05:08:46.062Z,11.70
2022-08-26T05:11:36.123Z,11.80
2022-08-26T05:14:33.029Z,11.80
2022-08-26T05:17:22.677Z,11.20
2022-08-26T05:20:12.526Z,11.37
2022-08-26T05:23:01.652Z,11.87
2022-08-26T05:25:59.371Z,13.50
2022-08-26T05:28:49.068Z,11.63
2022-08-26T05:31:39.061Z,11.77
2022-08-26T05:34:30.073Z,12.67
2022-08-26T05:37:19.376Z,13.80
2022-08-26T05:40:10.468Z,12.27
2022-08-26T05:43:00.731Z,13.20
2022-08-26T05:45:52.067Z,16.90
2022-08-26T05:48:40.840Z,13.07
2022-08-26T05:51:33.059Z,11.93
2022-08-26T05:54:22.896Z,12.27
2022-08-26T05:57:12.078Z,11.23
2022-08-26T06:00:02.167Z,12.00
2022-08-26T06:02:51.210Z,12.03
2022-08-26T06:05:40.286Z,13.63
2022-08-26T06:08:28.881Z,12.87
2022-08-26T06:11:19.909Z,14.00
2022-08-26T06:14:09.742Z,13.83
2022-08-26T06:17:00.584Z,12.77
2022-08-26T06:19:48.787Z,13.57
2022-08-26T06:22:56.212Z,12.17
2022-08-26T06:25:44.593Z,11.77
2022-08-26T06:28:34.512Z,11.50
2022-08-26T06:31:25.378Z,15.20
2022-08-26T06:34:15.262Z,12.27
2022-08-26T06:37:06.880Z,12.97
2022-08-26T06:39:55.075Z,16.33
2022-08-26T06:42:45.105Z,12.27
2022-08-26T06:45:34.630Z,12.83
2022-08-26T06:48:22.903Z,11.93
2022-08-26T06:51:14.399Z,12.07
2022-08-26T06:54:03.812Z,11.83
2022-08-26T06:56:52.293Z,13.90
2022-08-26T06:59:40.506Z,12.80
2022-08-26T07:02:28.796Z,12.50
2022-08-26T07:05:19.792Z,12.93
2022-08-26T07:08:09.528Z,11.43
2022-08-26T07:10:59.409Z,14.10
2022-08-26T07:13:48.386Z,12.83
2022-08-26T07:16:41.110Z,14.50
2022-08-26T07:19:30.975Z,11.77
2022-08-26T07:22:19.922Z,12.47
2022-08-26T07:25:13.120Z,14.37
2022-08-26T07:28:01.426Z,11.50
2022-08-26T07:30:53.593Z,12.13
2022-08-26T07:33:43.202Z,12.00
2022-08-26T07:36:34.872Z,12.57
2022-08-26T07:39:23.771Z,12.57
2022-08-26T07:42:16.111Z,12.37
2022-08-26T07:45:09.660Z,11.67
2022-08-26T07:47:58.428Z,10.93
2022-08-26T07:50:47.279Z,10.93
2022-08-26T07:53:39.272Z,11.80
2022-08-26T07:56:27.501Z,11.10
2022-08-26T07:59:17.905Z,11.47
2022-08-26T08:02:06.320Z,12.13
2022-08-26T08:04:57.867Z,12.17
2022-08-26T08:07:46.519Z,10.60
2022-08-26T08:10:36.452Z,11.43
2022-08-26T08:13:24.925Z,11.50
2022-08-26T08:16:14.622Z,11.07
2022-08-26T08:19:02.921Z,11.33
2022-08-26T08:21:53.597Z,11.40
2022-08-26T08:24:43.170Z,11.10
2022-08-26T08:27:33.999Z,11.97
2022-08-26T08:30:25.950Z,10.60
2022-08-26T08:33:16.857Z,12.37
2022-08-26T08:36:09.192Z,11.57
2022-08-26T08:38:57.665Z,12.40
2022-08-26T08:42:07.573Z,12.50
2022-08-26T08:45:00.350Z,11.57
2022-08-26T08:47:51.802Z,12.13
2022-08-26T08:50:47.059Z,10.57
2022-08-26T08:53:38.403Z,11.37
2022-08-26T08:56:32.614Z,13.40
2022-08-26T08:59:24.084Z,11.50
2022-08-26T09:02:21.346Z,10.50
2022-08-26T09:05:15.134Z,10.60
2022-08-26T09:08:11.397Z,13.57
2022-08-26T09:11:11.658Z,11.00
2022-08-26T09:14:01.979Z,11.03
2022-08-26T09:16:58.259Z,11.13
2022-08-26T09:19:53.003Z,10.50
2022-08-26T09:22:44.278Z,10.30
2022-08-26T09:25:46.856Z,11.30
2022-08-26T09:28:35.836Z,11.10
2022-08-26T09:31:27.415Z,10.33
2022-08-26T09:34:18.455Z,10.23
2022-08-26T09:37:09.008Z,10.80
2022-08-26T09:40:18.891Z,10.63
2022-08-26T09:43:22.483Z,11.13
2022-08-26T09:46:15.545Z,11.23
2022-08-26T09:49:24.714Z,13.63
2022-08-26T09:52:20.875Z,11.47
2022-08-26T09:55:14.431Z,10.73
2022-08-26T09:58:04.290Z,11.77
2022-08-26T10:01:04.431Z,11.93
2022-08-26T10:03:53.414Z,12.93
2022-08-26T10:06:45.246Z,10.87
2022-08-26T10:09:37.079Z,11.97
2022-08-26T10:12:25.606Z,12.43
2022-08-26T10:15:16.584Z,10.63
2022-08-26T10:18:16.072Z,11.53
2022-08-26T10:21:08.338Z,12.10
2022-08-26T10:24:02.852Z,11.37
2022-08-26T10:27:03.367Z,11.20
2022-08-26T10:29:57.538Z,11.37
2022-08-26T10:32:50.056Z,11.30
2022-08-26T10:35:45.935Z,11.03
2022-08-26T10:38:36.217Z,13.23
2022-08-26T10:41:29.000Z,12.20
2022-08-26T10:44:22.063Z,13.17
2022-08-26T10:47:17.634Z,15.57
2022-08-26T10:50:07.061Z,11.80
2022-08-26T10:53:04.893Z,12.80
2022-08-26T10:56:02.390Z,12.13
2022-08-26T10:59:01.782Z,13.17
2022-08-26T11:01:59.161Z,11.43
2022-08-26T11:04:58.308Z,13.10
2022-08-26T11:07:50.763Z,12.73
2022-08-26T11:10:59.081Z,11.40
2022-08-26T11:14:02.099Z,13.27
2022-08-26T11:16:52.052Z,12.00
2022-08-26T11:20:02.126Z,12.10
2022-08-26T11:22:55.599Z,13.17
2022-08-26T11:26:27.453Z,12.07
2022-08-26T11:30:00.990Z,14.90
2022-08-26T11:32:53.503Z,17.37
2022-08-26T11:35:52.153Z,15.20
2022-08-26T11:38:43.573Z,11.97
2022-08-26T11:41:35.390Z,13.47
2022-08-26T11:44:27.907Z,11.00
2022-08-26T11:47:17.931Z,10.30
2022-08-26T11:50:09.570Z,11.30
2022-08-26T11:53:06.391Z,11.53
2022-08-26T11:56:00.238Z,13.47
2022-08-26T11:58:56.793Z,11.10
2022-08-26T12:01:54.601Z,12.23
2022-08-26T12:04:46.211Z,11.70
2022-08-26T12:07:39.799Z,13.97
2022-08-26T12:10:33.632Z,10.40
2022-08-26T12:13:24.447Z,12.23
2022-08-26T12:16:25.515Z,11.23
2022-08-26T12:19:26.096Z,11.27
2022-08-26T12:22:20.873Z,10.70
2022-08-26T12:25:11.196Z,11.37
2022-08-26T12:28:06.564Z,14.23
2022-08-26T12:31:07.040Z,10.47
2022-08-26T12:33:59.162Z,11.17
2022-08-26T12:36:49.651Z,11.73
2022-08-26T12:39:42.030Z,10.93
2022-08-26T12:42:44.520Z,10.33
2022-08-26T12:45:35.578Z,12.20
2022-08-26T12:48:29.676Z,12.40
2022-08-26T12:51:24.485Z,10.97
2022-08-26T12:54:16.000Z,12.47
2022-08-26T12:57:11.370Z,13.00
2022-08-26T13:00:40.617Z,10.40
2022-08-26T13:03:43.534Z,10.33
2022-08-26T13:06:34.706Z,11.70
2022-08-26T13:09:34.551Z,11.77
2022-08-26T13:12:29.565Z,11.43
2022-08-26T13:15:17.964Z,11.70
2022-08-26T13:18:07.993Z,11.27
2022-08-26T13:20:56.358Z,11.77
2022-08-26T13:23:46.554Z,11.87
2022-08-26T13:26:35.121Z,11.50
2022-08-26T13:29:27.879Z,12.23
2022-08-26T13:32:17.978Z,12.17
2022-08-26T13:35:06.942Z,13.97
2022-08-26T13:37:55.530Z,12.27
2022-08-26T13:41:01.798Z,12.10
2022-08-26T13:43:50.163Z,11.23
2022-08-26T13:46:38.591Z,11.07
2022-08-26T13:49:26.985Z,11.90
2022-08-26T13:52:16.543Z,12.27
2022-08-26T13:55:06.426Z,12.27
2022-08-26T13:57:56.604Z,11.93
2022-08-26T14:00:44.996Z,12.20
2022-08-26T14:03:35.308Z,13.13
2022-08-26T14:06:23.618Z,12.33
2022-08-26T14:09:14.127Z,12.00
2022-08-26T14:12:02.884Z,11.63
2022-08-26T14:14:55.506Z,12.60
2022-08-26T14:17:45.822Z,12.10
2022-08-26T14:20:36.037Z,14.20
2022-08-26T14:23:24.591Z,12.47
2022-08-26T14:26:19.050Z,16.07
2022-08-26T14:29:17.381Z,12.97
2022-08-26T14:32:11.506Z,13.37
2022-08-26T14:35:00.056Z,14.27
2022-08-26T14:37:48.702Z,12.10
2022-08-26T14:40:39.341Z,15.93
2022-08-26T14:43:27.654Z,12.03
2022-08-26T14:46:17.022Z,13.97
2022-08-26T14:49:12.034Z,11.43
2022-08-26T14:52:02.200Z,11.70
2022-08-26T14:54:54.950Z,11.90
2022-08-26T14:57:43.751Z,11.27
2022-08-26T15:00:35.228Z,9.73
2022-08-26T15:03:23.569Z,9.60
2022-08-26T15:06:14.930Z,11.20
2022-08-26T15:09:05.965Z,9.10
2022-08-26T15:11:54.543Z,9.37
2022-08-26T15:14:42.818Z,10.17
2022-08-26T15:17:31.228Z,8.33
2022-08-26T15:20:20.244Z,8.57
2022-08-26T15:23:12.435Z,8.40
2022-08-26T15:26:00.883Z,9.03
2022-08-26T15:28:49.226Z,9.17
2022-08-26T15:31:39.860Z,8.57
2022-08-26T15:34:28.365Z,8.97
2022-08-26T15:37:19.506Z,8.30
2022-08-26T15:40:10.967Z,9.70
2022-08-26T15:43:18.525Z,8.30
2022-08-26T15:46:14.214Z,7.87
2022-08-26T15:49:04.023Z,7.80
2022-08-26T15:51:52.730Z,7.60
2022-08-26T15:54:41.071Z,7.33
2022-08-26T15:57:30.669Z,7.00
2022-08-26T16:00:19.993Z,7.80
2022-08-26T16:03:10.241Z,6.77
2022-08-26T16:06:01.289Z,6.40
2022-08-26T16:08:52.493Z,6.13
2022-08-26T16:11:42.203Z,6.33
2022-08-26T16:14:32.165Z,5.17
2022-08-26T16:17:23.447Z,4.80
2022-08-26T16:20:11.998Z,5.73
2022-08-26T16:23:00.589Z,5.00
2022-08-26T16:25:49.391Z,5.53
2022-08-26T16:28:38.293Z,4.03
2022-08-26T16:31:34.628Z,4.33
2022-08-26T16:34:24.368Z,4.50
2022-08-26T16:37:12.582Z,5.10
2022-08-26T16:40:05.162Z,4.83
2022-08-26T16:42:55.658Z,4.20
2022-08-26T16:45:48.327Z,5.37
2022-08-26T16:48:40.570Z,5.20
2022-08-26T16:51:29.452Z,5.30
2022-08-26T16:54:17.709Z,5.80
2022-08-26T16:57:08.858Z,4.90
2022-08-26T16:59:57.198Z,4.87
2022-08-26T17:02:52.986Z,4.57
2022-08-26T17:05:42.620Z,5.40
2022-08-26T17:08:30.944Z,10.23
2022-08-26T17:11:22.829Z,6.97
2022-08-26T17:14:14.175Z,7.53
2022-08-26T17:17:06.036Z,7.57
2022-08-26T17:19:54.394Z,7.47
2022-08-26T17:22:47.144Z,8.43
2022-08-26T17:25:35.425Z,7.97
2022-08-26T17:28:23.600Z,9.60
2022-08-26T17:31:13.926Z,9.03
2022-08-26T17:34:02.180Z,8.20
2022-08-26T17:36:50.821Z,9.90
2022-08-26T17:39:43.876Z,8.57
2022-08-26T17:42:34.993Z,8.90
2022-08-26T17:45:25.829Z,8.60
2022-08-26T17:48:14.501Z,8.03
2022-08-26T17:51:07.485Z,7.70
2022-08-26T17:53:55.922Z,7.80
2022-08-26T17:56:45.558Z,8.60
2022-08-26T17:59:33.777Z,7.93
2022-08-26T18:02:22.148Z,8.90
2022-08-26T18:05:12.577Z,8.73
2022-08-26T18:08:00.762Z,10.03
2022-08-26T18:10:51.195Z,8.83
2022-08-26T18:13:46.945Z,10.57
2022-08-26T18:16:38.349Z,10.00
2022-08-26T18:19:27.343Z,10.87
2022-08-26T18:22:15.801Z,10.57
2022-08-26T18:25:04.821Z,11.10
2022-08-26T18:27:53.190Z,10.57
2022-08-26T18:30:44.444Z,11.00
2022-08-26T18:33:32.787Z,10.90
2022-08-26T18:36:23.366Z,10.93
2022-08-26T18:39:13.361Z,10.70
2022-08-26T18:42:05.165Z,10.00
2022-08-26T18:44:53.923Z,10.03
2022-08-26T18:47:43.551Z,10.77
2022-08-26T18:50:38.219Z,10.50
2022-08-26T18:53:26.524Z,10.27
2022-08-26T18:56:18.103Z,10.13
2022-08-26T18:59:09.406Z,10.07
2022-08-26T19:01:57.792Z,10.30
2022-08-26T19:04:47.531Z,10.50
2022-08-26T19:07:39.592Z,11.03
2022-08-26T19:10:28.015Z,11.20
2022-08-26T19:13:16.269Z,11.53
2022-08-26T19:16:05.812Z,11.20
2022-08-26T19:18:55.591Z,11.60
2022-08-26T19:21:45.618Z,11.40
2022-08-26T19:24:33.933Z,11.40
2022-08-26T19:27:22.204Z,11.97
2022-08-26T19:30:11.334Z,11.73
2022-08-26T19:32:59.549Z,12.33
2022-08-26T19:35:50.320Z,12.60
2022-08-26T19:38:42.568Z,12.53
2022-08-26T19:41:37.264Z,12.33
2022-08-26T19:44:43.422Z,12.23
2022-08-26T19:47:31.740Z,12.33
2022-08-26T19:50:23.832Z,11.80
2022-08-26T19:53:15.351Z,11.60
2022-08-26T19:56:05.206Z,11.53
2022-08-26T19:58:56.460Z,11.70
2022-08-26T20:01:46.890Z,11.30
2022-08-26T20:04:56.628Z,11.40
2022-08-26T20:07:45.100Z,10.80
2022-08-26T20:10:35.199Z,11.00
2022-08-26T20:13:24.710Z,11.87
2022-08-26T20:16:15.255Z,10.90
2022-08-26T20:19:21.223Z,10.87
2022-08-26T20:22:09.753Z,11.80
2022-08-26T20:24:58.109Z,10.83
2022-08-26T20:27:46.497Z,11.30
2022-08-26T20:30:44.741Z,11.37
2022-08-26T20:33:39.856Z,10.60
2022-08-26T20:36:39.030Z,10.50
2022-08-26T20:39:34.383Z,10.97
2022-08-26T20:42:23.065Z,11.40
2022-08-26T20:45:11.968Z,11.23
2022-08-26T20:48:01.732Z,11.20
2022-08-26T20:50:52.047Z,12.33
2022-08-26T20:53:41.297Z,12.47
2022-08-26T20:56:31.972Z,11.77
2022-08-26T20:59:20.905Z,13.00
2022-08-26T21:02:09.765Z,13.00
2022-08-26T21:04:59.449Z,11.27
2022-08-26T21:07:47.764Z,11.90
2022-08-26T21:10:38.475Z,11.77
2022-08-26T21:13:26.705Z,12.33
2022-08-26T21:16:15.066Z,12.73
2022-08-26T21:19:05.264Z,12.30
2022-08-26T21:21:55.039Z,11.40
2022-08-26T21:24:44.559Z,11.57
2022-08-26T21:27:32.817Z,11.80
2022-08-26T21:30:21.214Z,12.40
2022-08-26T21:33:10.229Z,11.77
2022-08-26T21:36:00.427Z,11.43
2022-08-26T21:38:51.355Z,11.47
2022-08-26T21:41:47.168Z,11.70
2022-08-26T21:44:35.448Z,12.07
2022-08-26T21:47:24.415Z,11.33
2022-08-26T21:50:13.549Z,11.83
2022-08-26T21:53:01.780Z,12.13
2022-08-26T21:55:51.387Z,13.07
2022-08-26T21:58:42.927Z,12.63
2022-08-26T22:01:34.723Z,12.10
2022-08-26T22:04:23.142Z,12.60
2022-08-26T22:07:11.564Z,12.37
2022-08-26T22:10:03.505Z,12.00
2022-08-26T22:12:53.139Z,13.90
2022-08-26T22:15:45.823Z,12.97
2022-08-26T22:18:35.069Z,12.50
2022-08-26T22:21:28.348Z,12.30
2022-08-26T22:24:17.006Z,11.97
2022-08-26T22:27:05.705Z,12.03
2022-08-26T22:30:02.349Z,10.87
2022-08-26T22:32:50.893Z,11.47
2022-08-26T22:35:40.471Z,12.53
2022-08-26T22:38:28.742Z,13.10
2022-08-26T22:41:18.711Z,12.53
2022-08-26T22:44:07.571Z,10.97
2022-08-26T22:46:58.344Z,10.13
2022-08-26T22:49:46.710Z,11.73
2022-08-26T22:52:37.645Z,13.17
2022-08-26T22:55:26.620Z,11.30
2022-08-26T22:58:17.978Z,11.90
2022-08-26T23:01:07.877Z,11.90
2022-08-26T23:04:00.222Z,14.53
2022-08-26T23:06:51.650Z,13.27
2022-08-26T23:09:40.012Z,14.57
2022-08-26T23:12:28.593Z,13.53
2022-08-26T23:15:17.043Z,14.23
2022-08-26T23:18:09.887Z,17.90
2022-08-26T23:21:01.069Z,15.10
2022-08-26T23:23:50.367Z,13.43
2022-08-26T23:26:39.952Z,15.93
2022-08-26T23:29:28.914Z,13.67
2022-08-26T23:32:18.891Z,14.63
2022-08-26T23:35:10.806Z,23.40
2022-08-26T23:38:04.058Z,14.40
2022-08-26T23:40:55.047Z,17.07
2022-08-26T23:44:05.278Z,12.17
2022-08-26T23:47:03.255Z,14.60
2022-08-26T23:49:51.566Z,14.30
2022-08-26T23:53:06.634Z,14.30
2022-08-26T23:55:56.305Z,12.77
2022-08-26T23:58:47.496Z,16.20
